sensor_id;sensor_type;location;lat;lon;timestamp;temperature;humidity
24446;DHT22;13347;50.984;5.822;2023-08-08T00:00:20;14.00;20.50
24446;DHT22;13347;50.984;5.822;2023-08-08T00:02:49;14.00;29.10
24446;DHT22;13347;50.984;5.822;2023-08-08T00:05:16;14.00;30.20
24446;DHT22;13347;50.984;5.822;2023-08-08T00:07:43;14.10;30.20
24446;DHT22;13347;50.984;5.822;2023-08-08T00:10:10;14.10;30.90
24446;DHT22;13347;50.984;5.822;2023-08-08T00:12:37;14.10;34.30
24446;DHT22;13347;50.984;5.822;2023-08-08T00:15:05;14.30;30.90
24446;DHT22;13347;50.984;5.822;2023-08-08T00:17:32;14.20;29.00
24446;DHT22;13347;50.984;5.822;2023-08-08T00:20:01;14.30;28.50
24446;DHT22;13347;50.984;5.822;2023-08-08T00:22:29;14.40;27.30
24446;DHT22;13347;50.984;5.822;2023-08-08T00:24:56;14.40;27.60
24446;DHT22;13347;50.984;5.822;2023-08-08T00:27:23;14.40;24.80
24446;DHT22;13347;50.984;5.822;2023-08-08T00:29:50;14.40;24.50
24446;DHT22;13347;50.984;5.822;2023-08-08T00:32:18;14.40;27.70
24446;DHT22;13347;50.984;5.822;2023-08-08T00:34:45;14.40;30.00
24446;DHT22;13347;50.984;5.822;2023-08-08T00:37:14;14.40;40.80
24446;DHT22;13347;50.984;5.822;2023-08-08T00:39:41;14.30;55.20
24446;DHT22;13347;50.984;5.822;2023-08-08T00:42:11;14.30;69.80
24446;DHT22;13347;50.984;5.822;2023-08-08T00:44:38;14.20;85.60
24446;DHT22;13347;50.984;5.822;2023-08-08T00:47:06;14.20;95.60
24446;DHT22;13347;50.984;5.822;2023-08-08T00:49:33;14.20;99.90
24446;DHT22;13347;50.984;5.822;2023-08-08T00:52:00;14.10;99.90
24446;DHT22;13347;50.984;5.822;2023-08-08T00:54:29;14.10;99.90
24446;DHT22;13347;50.984;5.822;2023-08-08T00:56:56;14.00;99.90
24446;DHT22;13347;50.984;5.822;2023-08-08T00:59:23;13.90;99.90
24446;DHT22;13347;50.984;5.822;2023-08-08T01:01:50;13.90;99.90
24446;DHT22;13347;50.984;5.822;2023-08-08T01:04:19;13.80;99.90
24446;DHT22;13347;50.984;5.822;2023-08-08T01:06:48;13.70;99.90
24446;DHT22;13347;50.984;5.822;2023-08-08T01:09:18;13.60;99.90
24446;DHT22;13347;50.984;5.822;2023-08-08T01:11:48;13.60;99.90
24446;DHT22;13347;50.984;5.822;2023-08-08T01:14:16;13.60;99.90
24446;DHT22;13347;50.984;5.822;2023-08-08T01:16:44;13.60;99.90
24446;DHT22;13347;50.984;5.822;2023-08-08T01:19:13;13.60;99.90
24446;DHT22;13347;50.984;5.822;2023-08-08T01:21:41;13.50;99.90
24446;DHT22;13347;50.984;5.822;2023-08-08T01:24:19;13.40;99.90
24446;DHT22;13347;50.984;5.822;2023-08-08T01:26:46;13.40;99.90
24446;DHT22;13347;50.984;5.822;2023-08-08T01:29:14;13.50;99.90
24446;DHT22;13347;50.984;5.822;2023-08-08T01:31:40;13.40;99.90
24446;DHT22;13347;50.984;5.822;2023-08-08T01:34:07;13.50;99.90
24446;DHT22;13347;50.984;5.822;2023-08-08T01:36:37;13.50;99.90
24446;DHT22;13347;50.984;5.822;2023-08-08T01:39:05;13.40;99.90
24446;DHT22;13347;50.984;5.822;2023-08-08T01:41:37;13.40;99.90
24446;DHT22;13347;50.984;5.822;2023-08-08T01:44:05;13.40;99.90
24446;DHT22;13347;50.984;5.822;2023-08-08T01:46:32;13.50;99.90
24446;DHT22;13347;50.984;5.822;2023-08-08T01:49:00;13.50;99.90
24446;DHT22;13347;50.984;5.822;2023-08-08T01:51:27;13.50;99.90
24446;DHT22;13347;50.984;5.822;2023-08-08T01:53:54;13.50;99.90
24446;DHT22;13347;50.984;5.822;2023-08-08T01:56:21;13.50;99.90
24446;DHT22;13347;50.984;5.822;2023-08-08T01:58:49;13.50;99.90
24446;DHT22;13347;50.984;5.822;2023-08-08T02:01:16;13.50;99.90
24446;DHT22;13347;50.984;5.822;2023-08-08T02:03:43;13.50;99.90
24446;DHT22;13347;50.984;5.822;2023-08-08T02:06:10;13.50;99.90
24446;DHT22;13347;50.984;5.822;2023-08-08T02:08:37;13.50;99.90
24446;DHT22;13347;50.984;5.822;2023-08-08T02:11:04;13.40;99.90
24446;DHT22;13347;50.984;5.822;2023-08-08T02:13:32;13.40;99.90
24446;DHT22;13347;50.984;5.822;2023-08-08T02:16:00;13.40;99.90
24446;DHT22;13347;50.984;5.822;2023-08-08T02:18:27;13.50;99.90
24446;DHT22;13347;50.984;5.822;2023-08-08T02:20:54;13.40;99.90
24446;DHT22;13347;50.984;5.822;2023-08-08T02:23:21;13.40;99.90
24446;DHT22;13347;50.984;5.822;2023-08-08T02:25:48;13.40;99.90
24446;DHT22;13347;50.984;5.822;2023-08-08T02:28:15;13.50;99.90
24446;DHT22;13347;50.984;5.822;2023-08-08T02:30:42;13.40;99.90
24446;DHT22;13347;50.984;5.822;2023-08-08T02:33:11;13.40;99.90
24446;DHT22;13347;50.984;5.822;2023-08-08T02:35:38;13.40;99.90
24446;DHT22;13347;50.984;5.822;2023-08-08T02:38:05;13.40;99.90
24446;DHT22;13347;50.984;5.822;2023-08-08T02:40:32;13.40;99.90
24446;DHT22;13347;50.984;5.822;2023-08-08T02:42:59;13.50;99.90
24446;DHT22;13347;50.984;5.822;2023-08-08T02:45:26;13.50;99.90
24446;DHT22;13347;50.984;5.822;2023-08-08T02:47:53;13.40;99.90
24446;DHT22;13347;50.984;5.822;2023-08-08T02:50:21;13.40;99.90
24446;DHT22;13347;50.984;5.822;2023-08-08T02:52:49;13.40;99.90
24446;DHT22;13347;50.984;5.822;2023-08-08T02:55:17;13.40;99.90
24446;DHT22;13347;50.984;5.822;2023-08-08T02:57:44;13.40;99.90
24446;DHT22;13347;50.984;5.822;2023-08-08T03:00:11;13.30;99.90
24446;DHT22;13347;50.984;5.822;2023-08-08T03:02:39;13.30;99.90
24446;DHT22;13347;50.984;5.822;2023-08-08T03:05:06;13.30;99.90
24446;DHT22;13347;50.984;5.822;2023-08-08T03:07:34;13.30;99.90
24446;DHT22;13347;50.984;5.822;2023-08-08T03:10:02;13.40;99.90
24446;DHT22;13347;50.984;5.822;2023-08-08T03:12:30;13.30;99.90
24446;DHT22;13347;50.984;5.822;2023-08-08T03:14:57;13.30;99.90
24446;DHT22;13347;50.984;5.822;2023-08-08T03:17:24;13.30;99.90
24446;DHT22;13347;50.984;5.822;2023-08-08T03:19:51;13.30;99.90
24446;DHT22;13347;50.984;5.822;2023-08-08T03:22:18;13.30;99.90
24446;DHT22;13347;50.984;5.822;2023-08-08T03:24:46;13.30;99.90
24446;DHT22;13347;50.984;5.822;2023-08-08T03:27:13;13.30;99.90
24446;DHT22;13347;50.984;5.822;2023-08-08T03:29:40;13.30;99.90
24446;DHT22;13347;50.984;5.822;2023-08-08T03:32:07;13.30;99.90
24446;DHT22;13347;50.984;5.822;2023-08-08T03:34:34;13.20;99.90
24446;DHT22;13347;50.984;5.822;2023-08-08T03:37:01;13.20;99.90
24446;DHT22;13347;50.984;5.822;2023-08-08T03:39:29;13.20;99.90
24446;DHT22;13347;50.984;5.822;2023-08-08T03:41:57;13.30;99.90
24446;DHT22;13347;50.984;5.822;2023-08-08T03:44:24;13.20;99.90
24446;DHT22;13347;50.984;5.822;2023-08-08T03:46:51;13.20;99.90
24446;DHT22;13347;50.984;5.822;2023-08-08T03:49:18;13.30;99.90
24446;DHT22;13347;50.984;5.822;2023-08-08T03:51:45;13.20;99.90
24446;DHT22;13347;50.984;5.822;2023-08-08T03:54:14;13.20;99.90
24446;DHT22;13347;50.984;5.822;2023-08-08T03:56:41;13.20;99.90
24446;DHT22;13347;50.984;5.822;2023-08-08T03:59:09;13.20;99.90
24446;DHT22;13347;50.984;5.822;2023-08-08T04:01:36;13.20;99.90
24446;DHT22;13347;50.984;5.822;2023-08-08T04:04:04;13.20;99.90
24446;DHT22;13347;50.984;5.822;2023-08-08T04:06:31;13.10;99.90
24446;DHT22;13347;50.984;5.822;2023-08-08T04:08:58;13.10;99.90
24446;DHT22;13347;50.984;5.822;2023-08-08T04:11:26;13.10;99.90
24446;DHT22;13347;50.984;5.822;2023-08-08T04:13:53;13.10;99.90
24446;DHT22;13347;50.984;5.822;2023-08-08T04:16:21;13.10;99.90
24446;DHT22;13347;50.984;5.822;2023-08-08T04:18:48;13.00;99.90
24446;DHT22;13347;50.984;5.822;2023-08-08T04:21:15;13.00;99.90
24446;DHT22;13347;50.984;5.822;2023-08-08T04:23:42;13.00;99.90
24446;DHT22;13347;50.984;5.822;2023-08-08T04:26:10;12.90;99.90
24446;DHT22;13347;50.984;5.822;2023-08-08T04:28:37;12.90;99.90
24446;DHT22;13347;50.984;5.822;2023-08-08T04:31:04;12.90;99.90
24446;DHT22;13347;50.984;5.822;2023-08-08T04:33:32;12.90;99.90
24446;DHT22;13347;50.984;5.822;2023-08-08T04:35:59;12.90;99.90
24446;DHT22;13347;50.984;5.822;2023-08-08T04:38:26;12.90;99.90
24446;DHT22;13347;50.984;5.822;2023-08-08T04:40:53;12.90;99.90
24446;DHT22;13347;50.984;5.822;2023-08-08T04:43:20;12.90;99.90
24446;DHT22;13347;50.984;5.822;2023-08-08T04:45:47;12.90;99.90
24446;DHT22;13347;50.984;5.822;2023-08-08T04:48:14;12.90;99.90
24446;DHT22;13347;50.984;5.822;2023-08-08T04:50:43;13.00;99.90
24446;DHT22;13347;50.984;5.822;2023-08-08T04:53:10;13.00;99.90
24446;DHT22;13347;50.984;5.822;2023-08-08T04:55:37;13.00;99.90
24446;DHT22;13347;50.984;5.822;2023-08-08T04:58:04;13.00;99.90
24446;DHT22;13347;50.984;5.822;2023-08-08T05:00:31;13.10;99.90
24446;DHT22;13347;50.984;5.822;2023-08-08T05:02:59;13.10;99.90
24446;DHT22;13347;50.984;5.822;2023-08-08T05:05:26;13.00;99.90
24446;DHT22;13347;50.984;5.822;2023-08-08T05:07:55;13.10;99.90
24446;DHT22;13347;50.984;5.822;2023-08-08T05:10:22;13.10;99.90
24446;DHT22;13347;50.984;5.822;2023-08-08T05:12:49;13.10;99.90
24446;DHT22;13347;50.984;5.822;2023-08-08T05:15:16;13.00;99.90
24446;DHT22;13347;50.984;5.822;2023-08-08T05:17:43;13.10;99.90
24446;DHT22;13347;50.984;5.822;2023-08-08T05:20:10;13.10;99.90
24446;DHT22;13347;50.984;5.822;2023-08-08T05:22:37;13.10;99.90
24446;DHT22;13347;50.984;5.822;2023-08-08T05:25:06;13.20;99.90
24446;DHT22;13347;50.984;5.822;2023-08-08T05:27:34;13.20;99.90
24446;DHT22;13347;50.984;5.822;2023-08-08T05:30:01;13.20;99.90
24446;DHT22;13347;50.984;5.822;2023-08-08T05:32:28;13.20;99.90
24446;DHT22;13347;50.984;5.822;2023-08-08T05:34:56;13.30;99.90
24446;DHT22;13347;50.984;5.822;2023-08-08T05:37:23;13.30;99.90
24446;DHT22;13347;50.984;5.822;2023-08-08T05:39:50;13.50;99.90
24446;DHT22;13347;50.984;5.822;2023-08-08T05:42:19;13.60;99.90
24446;DHT22;13347;50.984;5.822;2023-08-08T05:44:46;13.80;99.90
24446;DHT22;13347;50.984;5.822;2023-08-08T05:47:13;13.80;99.90
24446;DHT22;13347;50.984;5.822;2023-08-08T05:49:40;13.90;99.90
24446;DHT22;13347;50.984;5.822;2023-08-08T05:52:08;14.00;99.90
24446;DHT22;13347;50.984;5.822;2023-08-08T05:54:35;14.50;99.90
24446;DHT22;13347;50.984;5.822;2023-08-08T05:57:02;14.80;99.90
24446;DHT22;13347;50.984;5.822;2023-08-08T05:59:31;15.30;99.90
24446;DHT22;13347;50.984;5.822;2023-08-08T06:01:58;15.40;99.90
24446;DHT22;13347;50.984;5.822;2023-08-08T06:04:25;15.40;99.90
24446;DHT22;13347;50.984;5.822;2023-08-08T06:06:52;15.70;99.90
24446;DHT22;13347;50.984;5.822;2023-08-08T06:09:19;16.00;99.90
24446;DHT22;13347;50.984;5.822;2023-08-08T06:11:46;16.50;99.90
24446;DHT22;13347;50.984;5.822;2023-08-08T06:14:14;16.00;99.90
24446;DHT22;13347;50.984;5.822;2023-08-08T06:16:43;15.30;99.90
24446;DHT22;13347;50.984;5.822;2023-08-08T06:19:10;14.80;99.90
24446;DHT22;13347;50.984;5.822;2023-08-08T06:21:39;14.60;99.90
24446;DHT22;13347;50.984;5.822;2023-08-08T06:24:06;14.60;99.90
24446;DHT22;13347;50.984;5.822;2023-08-08T06:26:33;14.90;99.90
24446;DHT22;13347;50.984;5.822;2023-08-08T06:29:00;15.70;99.90
24446;DHT22;13347;50.984;5.822;2023-08-08T06:31:27;15.70;99.90
24446;DHT22;13347;50.984;5.822;2023-08-08T06:33:55;15.50;99.90
24446;DHT22;13347;50.984;5.822;2023-08-08T06:36:22;15.60;99.90
24446;DHT22;13347;50.984;5.822;2023-08-08T06:38:49;16.10;99.90
24446;DHT22;13347;50.984;5.822;2023-08-08T06:41:16;15.90;99.90
24446;DHT22;13347;50.984;5.822;2023-08-08T06:43:44;16.30;99.90
24446;DHT22;13347;50.984;5.822;2023-08-08T06:46:11;16.20;99.90
24446;DHT22;13347;50.984;5.822;2023-08-08T06:48:38;16.20;99.90
24446;DHT22;13347;50.984;5.822;2023-08-08T06:51:06;16.30;86.80
24446;DHT22;13347;50.984;5.822;2023-08-08T06:53:33;15.90;96.10
24446;DHT22;13347;50.984;5.822;2023-08-08T06:56:00;16.20;99.90
24446;DHT22;13347;50.984;5.822;2023-08-08T06:58:27;16.40;62.80
24446;DHT22;13347;50.984;5.822;2023-08-08T07:00:55;16.80;35.80
24446;DHT22;13347;50.984;5.822;2023-08-08T07:03:22;17.20;1.00
24446;DHT22;13347;50.984;5.822;2023-08-08T07:05:49;17.30;1.00
24446;DHT22;13347;50.984;5.822;2023-08-08T07:08:18;17.00;1.00
24446;DHT22;13347;50.984;5.822;2023-08-08T07:10:45;17.20;1.00
24446;DHT22;13347;50.984;5.822;2023-08-08T07:13:12;17.00;1.00
24446;DHT22;13347;50.984;5.822;2023-08-08T07:15:41;17.00;1.00
24446;DHT22;13347;50.984;5.822;2023-08-08T07:18:08;16.80;1.00
24446;DHT22;13347;50.984;5.822;2023-08-08T07:20:35;16.80;1.00
24446;DHT22;13347;50.984;5.822;2023-08-08T07:23:02;17.00;1.00
24446;DHT22;13347;50.984;5.822;2023-08-08T07:25:30;17.00;1.00
24446;DHT22;13347;50.984;5.822;2023-08-08T07:27:57;16.90;1.00
24446;DHT22;13347;50.984;5.822;2023-08-08T07:30:25;16.80;1.00
24446;DHT22;13347;50.984;5.822;2023-08-08T07:32:52;16.90;1.00
24446;DHT22;13347;50.984;5.822;2023-08-08T07:35:19;17.00;1.00
24446;DHT22;13347;50.984;5.822;2023-08-08T07:37:46;17.00;1.00
24446;DHT22;13347;50.984;5.822;2023-08-08T07:40:13;16.80;1.00
24446;DHT22;13347;50.984;5.822;2023-08-08T07:42:42;16.70;1.00
24446;DHT22;13347;50.984;5.822;2023-08-08T07:45:09;16.60;1.00
24446;DHT22;13347;50.984;5.822;2023-08-08T07:47:36;17.00;1.00
24446;DHT22;13347;50.984;5.822;2023-08-08T07:50:03;17.20;1.00
24446;DHT22;13347;50.984;5.822;2023-08-08T07:52:32;17.40;1.00
24446;DHT22;13347;50.984;5.822;2023-08-08T07:54:59;17.10;1.00
24446;DHT22;13347;50.984;5.822;2023-08-08T07:59:54;17.30;1.00
24446;DHT22;13347;50.984;5.822;2023-08-08T08:02:21;17.30;1.00
24446;DHT22;13347;50.984;5.822;2023-08-08T08:04:48;17.50;1.00
24446;DHT22;13347;50.984;5.822;2023-08-08T08:07:15;17.60;1.00
24446;DHT22;13347;50.984;5.822;2023-08-08T08:09:43;17.40;99.90
24446;DHT22;13347;50.984;5.822;2023-08-08T08:12:10;17.50;99.90
24446;DHT22;13347;50.984;5.822;2023-08-08T08:14:37;17.50;99.90
24446;DHT22;13347;50.984;5.822;2023-08-08T08:17:06;17.60;99.90
24446;DHT22;13347;50.984;5.822;2023-08-08T08:19:33;17.70;1.00
24446;DHT22;13347;50.984;5.822;2023-08-08T08:22:01;17.80;1.00
24446;DHT22;13347;50.984;5.822;2023-08-08T08:24:28;17.80;1.00
24446;DHT22;13347;50.984;5.822;2023-08-08T08:26:55;17.60;1.00
24446;DHT22;13347;50.984;5.822;2023-08-08T08:29:22;17.70;1.00
24446;DHT22;13347;50.984;5.822;2023-08-08T08:31:49;17.80;1.00
24446;DHT22;13347;50.984;5.822;2023-08-08T08:34:18;18.00;1.00
24446;DHT22;13347;50.984;5.822;2023-08-08T08:36:45;17.80;1.00
24446;DHT22;13347;50.984;5.822;2023-08-08T08:39:12;17.80;1.00
24446;DHT22;13347;50.984;5.822;2023-08-08T08:41:39;17.80;1.00
24446;DHT22;13347;50.984;5.822;2023-08-08T08:44:06;18.00;1.00
24446;DHT22;13347;50.984;5.822;2023-08-08T08:46:33;17.50;1.00
24446;DHT22;13347;50.984;5.822;2023-08-08T08:49:02;17.40;1.00
24446;DHT22;13347;50.984;5.822;2023-08-08T08:51:31;17.50;1.00
24446;DHT22;13347;50.984;5.822;2023-08-08T08:53:58;17.50;1.00
24446;DHT22;13347;50.984;5.822;2023-08-08T08:56:25;17.50;1.00
24446;DHT22;13347;50.984;5.822;2023-08-08T08:58:52;17.50;1.00
24446;DHT22;13347;50.984;5.822;2023-08-08T09:01:19;17.70;1.00
24446;DHT22;13347;50.984;5.822;2023-08-08T09:03:47;18.00;1.00
24446;DHT22;13347;50.984;5.822;2023-08-08T09:06:14;18.70;1.00
24446;DHT22;13347;50.984;5.822;2023-08-08T09:08:46;18.90;1.00
24446;DHT22;13347;50.984;5.822;2023-08-08T09:11:13;19.20;1.00
24446;DHT22;13347;50.984;5.822;2023-08-08T09:13:40;19.40;99.90
24446;DHT22;13347;50.984;5.822;2023-08-08T09:16:07;19.50;14.20
24446;DHT22;13347;50.984;5.822;2023-08-08T09:18:34;19.60;1.00
24446;DHT22;13347;50.984;5.822;2023-08-08T09:21:03;19.20;1.00
24446;DHT22;13347;50.984;5.822;2023-08-08T09:23:30;18.90;1.00
24446;DHT22;13347;50.984;5.822;2023-08-08T09:25:59;19.10;1.00
24446;DHT22;13347;50.984;5.822;2023-08-08T09:28:26;19.00;1.00
24446;DHT22;13347;50.984;5.822;2023-08-08T09:30:53;19.00;1.00
24446;DHT22;13347;50.984;5.822;2023-08-08T09:33:21;18.60;1.00
24446;DHT22;13347;50.984;5.822;2023-08-08T09:35:48;18.60;1.00
24446;DHT22;13347;50.984;5.822;2023-08-08T09:38:15;18.70;1.00
24446;DHT22;13347;50.984;5.822;2023-08-08T09:40:42;18.60;1.00
24446;DHT22;13347;50.984;5.822;2023-08-08T09:43:11;17.90;1.00
24446;DHT22;13347;50.984;5.822;2023-08-08T09:45:38;17.90;99.90
24446;DHT22;13347;50.984;5.822;2023-08-08T09:48:07;18.00;1.00
24446;DHT22;13347;50.984;5.822;2023-08-08T09:50:34;18.20;99.90
24446;DHT22;13347;50.984;5.822;2023-08-08T09:53:02;18.60;99.90
24446;DHT22;13347;50.984;5.822;2023-08-08T09:55:29;19.40;1.00
24446;DHT22;13347;50.984;5.822;2023-08-08T09:57:57;19.20;99.90
24446;DHT22;13347;50.984;5.822;2023-08-08T10:00:26;18.80;99.90
24446;DHT22;13347;50.984;5.822;2023-08-08T10:02:55;18.50;99.90
24446;DHT22;13347;50.984;5.822;2023-08-08T10:05:26;18.40;99.90
24446;DHT22;13347;50.984;5.822;2023-08-08T10:07:53;18.70;99.90
24446;DHT22;13347;50.984;5.822;2023-08-08T10:10:20;19.20;99.90
24446;DHT22;13347;50.984;5.822;2023-08-08T10:12:47;20.00;14.50
24446;DHT22;13347;50.984;5.822;2023-08-08T10:15:14;20.00;1.00
24446;DHT22;13347;50.984;5.822;2023-08-08T10:17:43;20.60;1.00
24446;DHT22;13347;50.984;5.822;2023-08-08T10:20:11;20.70;1.00
24446;DHT22;13347;50.984;5.822;2023-08-08T10:22:41;20.60;99.90
24446;DHT22;13347;50.984;5.822;2023-08-08T10:25:08;20.10;99.90
24446;DHT22;13347;50.984;5.822;2023-08-08T10:27:36;20.30;99.90
24446;DHT22;13347;50.984;5.822;2023-08-08T10:30:05;20.00;99.90
24446;DHT22;13347;50.984;5.822;2023-08-08T10:32:38;20.20;99.90
24446;DHT22;13347;50.984;5.822;2023-08-08T10:35:07;20.10;99.90
24446;DHT22;13347;50.984;5.822;2023-08-08T10:37:35;20.20;99.90
24446;DHT22;13347;50.984;5.822;2023-08-08T10:40:02;19.80;99.90
24446;DHT22;13347;50.984;5.822;2023-08-08T10:42:32;19.60;99.90
24446;DHT22;13347;50.984;5.822;2023-08-08T10:45:01;19.50;99.90
24446;DHT22;13347;50.984;5.822;2023-08-08T10:47:31;19.90;99.90
24446;DHT22;13347;50.984;5.822;2023-08-08T10:49:59;20.10;99.90
24446;DHT22;13347;50.984;5.822;2023-08-08T10:52:28;20.00;97.30
24446;DHT22;13347;50.984;5.822;2023-08-08T10:54:55;19.80;17.10
24446;DHT22;13347;50.984;5.822;2023-08-08T10:57:24;19.80;99.90
24446;DHT22;13347;50.984;5.822;2023-08-08T10:59:51;20.20;1.00
24446;DHT22;13347;50.984;5.822;2023-08-08T11:02:19;19.70;1.00
24446;DHT22;13347;50.984;5.822;2023-08-08T11:04:47;19.90;1.00
24446;DHT22;13347;50.984;5.822;2023-08-08T11:07:16;20.20;1.00
24446;DHT22;13347;50.984;5.822;2023-08-08T11:09:45;20.70;1.00
24446;DHT22;13347;50.984;5.822;2023-08-08T11:12:15;21.00;1.00
24446;DHT22;13347;50.984;5.822;2023-08-08T11:14:43;21.00;1.00
24446;DHT22;13347;50.984;5.822;2023-08-08T11:17:10;20.80;1.00
24446;DHT22;13347;50.984;5.822;2023-08-08T11:19:40;20.80;1.00
24446;DHT22;13347;50.984;5.822;2023-08-08T11:22:10;21.10;1.00
24446;DHT22;13347;50.984;5.822;2023-08-08T11:24:38;21.70;1.00
24446;DHT22;13347;50.984;5.822;2023-08-08T11:27:06;22.70;1.00
24446;DHT22;13347;50.984;5.822;2023-08-08T11:29:33;22.10;99.90
24446;DHT22;13347;50.984;5.822;2023-08-08T11:32:00;21.10;99.90
24446;DHT22;13347;50.984;5.822;2023-08-08T11:34:30;20.60;99.90
24446;DHT22;13347;50.984;5.822;2023-08-08T11:36:57;20.40;99.90
24446;DHT22;13347;50.984;5.822;2023-08-08T11:39:25;19.80;99.90
24446;DHT22;13347;50.984;5.822;2023-08-08T11:41:53;19.70;1.00
24446;DHT22;13347;50.984;5.822;2023-08-08T11:44:22;19.50;1.00
24446;DHT22;13347;50.984;5.822;2023-08-08T11:46:49;19.00;1.00
24446;DHT22;13347;50.984;5.822;2023-08-08T11:49:16;18.90;1.00
24446;DHT22;13347;50.984;5.822;2023-08-08T11:51:45;18.80;1.00
24446;DHT22;13347;50.984;5.822;2023-08-08T11:54:12;18.80;1.00
24446;DHT22;13347;50.984;5.822;2023-08-08T11:56:39;18.90;1.00
24446;DHT22;13347;50.984;5.822;2023-08-08T11:59:06;19.00;1.00
24446;DHT22;13347;50.984;5.822;2023-08-08T12:01:36;19.00;1.00
24446;DHT22;13347;50.984;5.822;2023-08-08T12:04:07;18.90;1.00
24446;DHT22;13347;50.984;5.822;2023-08-08T12:06:36;18.90;1.00
24446;DHT22;13347;50.984;5.822;2023-08-08T12:09:04;18.90;1.00
24446;DHT22;13347;50.984;5.822;2023-08-08T12:11:34;18.90;1.00
24446;DHT22;13347;50.984;5.822;2023-08-08T12:14:01;19.10;1.00
24446;DHT22;13347;50.984;5.822;2023-08-08T12:16:28;19.30;1.00
24446;DHT22;13347;50.984;5.822;2023-08-08T12:18:59;19.20;1.00
24446;DHT22;13347;50.984;5.822;2023-08-08T12:21:27;18.80;1.00
24446;DHT22;13347;50.984;5.822;2023-08-08T12:23:54;18.60;1.00
24446;DHT22;13347;50.984;5.822;2023-08-08T12:26:21;18.40;1.00
24446;DHT22;13347;50.984;5.822;2023-08-08T12:28:49;18.20;1.00
24446;DHT22;13347;50.984;5.822;2023-08-08T12:31:19;17.90;56.10
24446;DHT22;13347;50.984;5.822;2023-08-08T12:33:46;17.80;99.90
24446;DHT22;13347;50.984;5.822;2023-08-08T12:36:15;17.90;1.00
24446;DHT22;13347;50.984;5.822;2023-08-08T12:38:42;17.90;1.00
24446;DHT22;13347;50.984;5.822;2023-08-08T12:41:11;18.00;1.00
24446;DHT22;13347;50.984;5.822;2023-08-08T12:43:38;18.00;1.00
24446;DHT22;13347;50.984;5.822;2023-08-08T12:46:05;17.70;1.00
24446;DHT22;13347;50.984;5.822;2023-08-08T12:48:32;17.80;1.00
24446;DHT22;13347;50.984;5.822;2023-08-08T12:51:00;17.80;1.00
24446;DHT22;13347;50.984;5.822;2023-08-08T12:53:28;18.10;1.00
24446;DHT22;13347;50.984;5.822;2023-08-08T12:55:55;18.30;1.00
24446;DHT22;13347;50.984;5.822;2023-08-08T12:58:22;19.00;99.90
24446;DHT22;13347;50.984;5.822;2023-08-08T13:00:49;19.90;99.90
24446;DHT22;13347;50.984;5.822;2023-08-08T13:03:16;20.60;1.00
24446;DHT22;13347;50.984;5.822;2023-08-08T13:05:44;20.20;1.00
24446;DHT22;13347;50.984;5.822;2023-08-08T13:08:11;19.70;1.00
24446;DHT22;13347;50.984;5.822;2023-08-08T13:10:40;19.80;1.00
24446;DHT22;13347;50.984;5.822;2023-08-08T13:13:07;20.30;1.00
24446;DHT22;13347;50.984;5.822;2023-08-08T13:15:35;20.30;1.00
24446;DHT22;13347;50.984;5.822;2023-08-08T13:18:02;19.90;1.00
24446;DHT22;13347;50.984;5.822;2023-08-08T13:20:29;20.00;1.00
24446;DHT22;13347;50.984;5.822;2023-08-08T13:22:56;20.30;1.00
24446;DHT22;13347;50.984;5.822;2023-08-08T13:25:23;20.60;1.00
24446;DHT22;13347;50.984;5.822;2023-08-08T13:27:51;20.50;99.90
24446;DHT22;13347;50.984;5.822;2023-08-08T13:30:18;20.70;99.90
24446;DHT22;13347;50.984;5.822;2023-08-08T13:32:47;20.80;99.90
24446;DHT22;13347;50.984;5.822;2023-08-08T13:35:14;20.90;99.90
24446;DHT22;13347;50.984;5.822;2023-08-08T13:37:41;21.30;99.90
24446;DHT22;13347;50.984;5.822;2023-08-08T13:40:08;21.90;99.90
24446;DHT22;13347;50.984;5.822;2023-08-08T13:42:35;21.50;5.60
24446;DHT22;13347;50.984;5.822;2023-08-08T13:45:04;21.10;28.20
24446;DHT22;13347;50.984;5.822;2023-08-08T13:47:31;20.90;99.20
24446;DHT22;13347;50.984;5.822;2023-08-08T13:49:58;21.30;99.90
24446;DHT22;13347;50.984;5.822;2023-08-08T13:52:25;21.80;99.90
24446;DHT22;13347;50.984;5.822;2023-08-08T13:54:54;22.10;1.00
24446;DHT22;13347;50.984;5.822;2023-08-08T13:57:21;21.90;1.00
24446;DHT22;13347;50.984;5.822;2023-08-08T13:59:48;21.80;1.00
24446;DHT22;13347;50.984;5.822;2023-08-08T14:02:16;21.60;1.00
24446;DHT22;13347;50.984;5.822;2023-08-08T14:04:43;21.60;1.00
24446;DHT22;13347;50.984;5.822;2023-08-08T14:07:10;21.60;1.00
24446;DHT22;13347;50.984;5.822;2023-08-08T14:09:37;21.30;1.00
24446;DHT22;13347;50.984;5.822;2023-08-08T14:12:04;21.10;1.00
24446;DHT22;13347;50.984;5.822;2023-08-08T14:14:32;20.90;1.00
24446;DHT22;13347;50.984;5.822;2023-08-08T14:16:59;21.10;1.00
24446;DHT22;13347;50.984;5.822;2023-08-08T14:19:27;21.60;1.00
24446;DHT22;13347;50.984;5.822;2023-08-08T14:21:54;21.80;1.00
24446;DHT22;13347;50.984;5.822;2023-08-08T14:24:21;21.80;1.00
24446;DHT22;13347;50.984;5.822;2023-08-08T14:26:48;22.00;1.00
24446;DHT22;13347;50.984;5.822;2023-08-08T14:29:16;21.80;1.00
24446;DHT22;13347;50.984;5.822;2023-08-08T14:31:43;21.50;1.00
24446;DHT22;13347;50.984;5.822;2023-08-08T14:34:10;21.90;1.00
24446;DHT22;13347;50.984;5.822;2023-08-08T14:36:38;22.00;1.00
24446;DHT22;13347;50.984;5.822;2023-08-08T14:39:05;21.30;1.00
24446;DHT22;13347;50.984;5.822;2023-08-08T14:41:32;21.20;1.00
24446;DHT22;13347;50.984;5.822;2023-08-08T14:43:59;21.50;1.00
24446;DHT22;13347;50.984;5.822;2023-08-08T14:46:26;22.50;1.00
24446;DHT22;13347;50.984;5.822;2023-08-08T14:48:55;23.20;1.00
24446;DHT22;13347;50.984;5.822;2023-08-08T14:51:22;23.40;1.00
24446;DHT22;13347;50.984;5.822;2023-08-08T14:53:51;23.10;1.00
24446;DHT22;13347;50.984;5.822;2023-08-08T14:56:18;22.10;1.00
24446;DHT22;13347;50.984;5.822;2023-08-08T14:58:45;21.40;1.00
24446;DHT22;13347;50.984;5.822;2023-08-08T15:01:12;21.50;1.00
24446;DHT22;13347;50.984;5.822;2023-08-08T15:03:39;22.00;1.00
24446;DHT22;13347;50.984;5.822;2023-08-08T15:06:08;22.10;1.00
24446;DHT22;13347;50.984;5.822;2023-08-08T15:08:35;22.70;1.00
24446;DHT22;13347;50.984;5.822;2023-08-08T15:11:03;22.80;1.00
24446;DHT22;13347;50.984;5.822;2023-08-08T15:13:31;22.70;1.00
24446;DHT22;13347;50.984;5.822;2023-08-08T15:15:58;22.30;1.00
24446;DHT22;13347;50.984;5.822;2023-08-08T15:18:25;21.90;1.00
24446;DHT22;13347;50.984;5.822;2023-08-08T15:20:52;21.30;1.00
24446;DHT22;13347;50.984;5.822;2023-08-08T15:23:19;21.30;1.00
24446;DHT22;13347;50.984;5.822;2023-08-08T15:25:46;21.40;1.00
24446;DHT22;13347;50.984;5.822;2023-08-08T15:28:15;21.50;1.00
24446;DHT22;13347;50.984;5.822;2023-08-08T15:30:42;21.30;1.00
24446;DHT22;13347;50.984;5.822;2023-08-08T15:33:09;21.00;1.00
24446;DHT22;13347;50.984;5.822;2023-08-08T15:35:36;21.40;1.00
24446;DHT22;13347;50.984;5.822;2023-08-08T15:38:03;21.30;1.00
24446;DHT22;13347;50.984;5.822;2023-08-08T15:40:30;20.90;1.00